Time;durP1;ratioP1;P1;durP2;ratioP2;P2;SDS_P1;SDS_P2;PMS_P1;PMS_P2;Temp;Humidity;BMP_temperature;BMP_pressure;BME280_temperature;BME280_humidity;BME280_pressure;Samples;Min_cycle;Max_cycle;Signal;HPM_P1;HPM_P2
2022/01/20 00:00:03;;;;;;;26.33;12.00;;;-1.90;91.50;;;;;;6220769;23;20005;-78
2022/01/20 00:02:31;;;;;;;26.95;13.32;;;-1.90;91.40;;;;;;6221079;23;20035;-79
2022/01/20 00:08:11;;;;;;;25.20;11.63;;;-1.90;91.40;;;;;;6222554;23;20057;-78
2022/01/20 00:27:08;;;;;;;23.70;12.80;;;-1.80;92.30;;;;;;6247365;23;20366;-79
2022/01/20 00:29:56;;;;;;;24.52;12.02;;;-1.80;92.30;;;;;;6220931;23;20023;-79
2022/01/20 00:32:23;;;;;;;26.65;12.30;;;-1.80;92.90;;;;;;6246938;23;20419;-78
2022/01/20 00:37:22;;;;;;;22.25;11.70;;;-1.70;92.30;;;;;;6256163;23;20036;-78
2022/01/20 00:39:48;;;;;;;25.15;11.55;;;-1.70;92.40;;;;;;6220776;23;20004;-78
2022/01/20 00:42:15;;;;;;;26.98;13.77;;;-1.60;92.60;;;;;;6247198;23;20003;-79
2022/01/20 00:44:42;;;;;;;26.98;12.18;;;-1.60;92.90;;;;;;6220242;23;20016;-79
2022/01/20 00:47:08;;;;;;;25.05;12.07;;;-1.60;92.60;;;;;;6247229;23;19996;-78
2022/01/20 00:49:34;;;;;;;25.58;12.27;;;-1.60;92.50;;;;;;6247052;23;20000;-79
2022/01/20 00:52:00;;;;;;;26.33;12.13;;;-1.60;92.70;;;;;;6220189;23;20366;-78
2022/01/20 00:54:26;;;;;;;26.38;12.57;;;-1.50;92.60;;;;;;6219738;23;20083;-79
2022/01/20 00:56:52;;;;;;;30.85;13.70;;;-1.50;93.20;;;;;;6246817;23;20016;-79
2022/01/20 00:59:18;;;;;;;24.55;13.32;;;-1.50;92.90;;;;;;6220926;23;20423;-79
2022/01/20 01:01:44;;;;;;;28.77;13.90;;;-1.50;93.10;;;;;;6220347;23;20004;-80
2022/01/20 01:04:11;;;;;;;30.10;14.40;;;-1.50;93.10;;;;;;6246957;23;20007;-80
2022/01/20 01:06:57;;;;;;;30.05;14.35;;;-1.50;93.20;;;;;;6246531;23;20000;-79
2022/01/20 01:09:23;;;;;;;34.83;14.40;;;-1.40;93.60;;;;;;6220265;23;20035;-79
2022/01/20 01:11:50;;;;;;;28.10;14.43;;;-1.50;93.70;;;;;;6223163;23;20499;-78
2022/01/20 01:14:18;;;;;;;26.58;13.80;;;-1.50;93.80;;;;;;6223370;23;20011;-79
2022/01/20 01:22:21;;;;;;;28.65;13.43;;;-1.40;93.70;;;;;;6247175;23;20051;-79
2022/01/20 01:24:54;;;;;;;26.70;13.10;;;-1.40;93.70;;;;;;6245250;23;20046;-79
2022/01/20 01:27:22;;;;;;;27.98;13.93;;;-1.40;93.50;;;;;;6247535;23;20010;-78
2022/01/20 01:32:34;;;;;;;29.35;14.07;;;-1.40;93.80;;;;;;6257303;23;20000;-79
2022/01/20 01:35:04;;;;;;;33.97;14.68;;;-1.40;93.60;;;;;;6219974;23;20004;-78
2022/01/20 01:40:11;;;;;;;28.90;13.70;;;-1.30;94.20;;;;;;6246759;23;20027;-79
2022/01/20 01:42:44;;;;;;;31.85;14.32;;;-1.30;93.90;;;;;;6246887;23;20024;-78
2022/01/20 01:45:15;;;;;;;31.80;15.82;;;-1.40;94.40;;;;;;6220013;23;20011;-78
2022/01/20 01:47:41;;;;;;;41.15;17.52;;;-1.30;94.30;;;;;;6247915;23;20028;-78
2022/01/20 01:50:08;;;;;;;27.95;14.88;;;-1.30;94.50;;;;;;6221795;23;20011;-79
2022/01/20 01:52:33;;;;;;;28.00;13.98;;;-1.40;94.30;;;;;;6222053;23;20059;-79
2022/01/20 01:54:59;;;;;;;28.55;13.40;;;-1.30;94.50;;;;;;6222403;23;20108;-78
2022/01/20 01:57:26;;;;;;;22.35;11.85;;;-1.30;94.60;;;;;;6249044;23;20008;-78
2022/01/20 01:59:52;;;;;;;25.02;12.10;;;-1.30;94.30;;;;;;6222321;23;20054;-79
2022/01/20 02:02:18;;;;;;;25.20;12.48;;;-1.30;94.30;;;;;;6222093;23;20370;-78
2022/01/20 02:04:44;;;;;;;18.15;10.38;;;-1.30;94.20;;;;;;6248822;23;19993;-79
2022/01/20 02:20:13;;;;;;;19.13;10.38;;;-1.10;93.80;;;;;;6248490;23;20026;-78
2022/01/20 02:22:40;;;;;;;20.40;9.65;;;-1.20;93.60;;;;;;6248789;23;20016;-78
2022/01/20 02:25:16;;;;;;;21.33;10.80;;;-1.10;93.70;;;;;;6221591;23;20004;-79
2022/01/20 02:27:42;;;;;;;19.50;9.75;;;-1.10;94.00;;;;;;6221707;23;19996;-78
2022/01/20 02:30:08;;;;;;;22.20;10.63;;;-1.10;93.70;;;;;;6248330;23;20051;-79
2022/01/20 02:32:34;;;;;;;22.75;10.77;;;-1.00;93.60;;;;;;6221933;23;20031;-79
2022/01/20 02:34:59;;;;;;;22.48;10.98;;;-1.00;93.30;;;;;;6248722;23;19996;-79
2022/01/20 02:37:25;;;;;;;20.63;10.07;;;-1.00;93.30;;;;;;6248577;23;20332;-78
2022/01/20 02:45:19;;;;;;;15.57;8.57;;;-1.10;93.30;;;;;;6248205;23;20007;-78
2022/01/20 02:47:45;;;;;;;16.95;8.70;;;-1.10;93.20;;;;;;6248473;23;20000;-78
2022/01/20 02:50:10;;;;;;;18.38;9.15;;;-1.00;93.10;;;;;;6248585;23;20004;-78
2022/01/20 02:52:36;;;;;;;18.35;8.82;;;-1.00;93.20;;;;;;6248140;23;20323;-78
2022/01/20 02:55:02;;;;;;;17.95;9.73;;;-1.00;92.80;;;;;;6222516;23;20011;-79
2022/01/20 02:57:27;;;;;;;14.82;8.57;;;-1.10;92.80;;;;;;6248234;23;20008;-78
2022/01/20 02:59:53;;;;;;;18.58;8.82;;;-1.10;92.80;;;;;;6248547;23;20011;-78
2022/01/20 03:02:19;;;;;;;14.95;8.48;;;-1.10;92.60;;;;;;6221508;23;20485;-78
2022/01/20 03:04:45;;;;;;;17.35;9.30;;;-1.10;92.60;;;;;;6247985;23;20000;-79
2022/01/20 03:07:11;;;;;;;18.95;9.57;;;-1.10;92.80;;;;;;6221174;23;20450;-78
2022/01/20 03:09:39;;;;;;;16.30;9.32;;;-1.10;92.90;;;;;;6221029;23;20019;-78
2022/01/20 03:12:06;;;;;;;16.80;9.20;;;-1.20;92.80;;;;;;6221298;23;20004;-78
2022/01/20 03:14:31;;;;;;;17.67;8.75;;;-1.20;93.10;;;;;;6248102;23;20063;-78
2022/01/20 03:16:57;;;;;;;22.23;11.38;;;-1.20;93.50;;;;;;6248456;23;20493;-78
2022/01/20 03:19:23;;;;;;;17.88;9.02;;;-1.20;93.80;;;;;;6221543;23;20007;-78
2022/01/20 03:21:49;;;;;;;21.90;10.93;;;-1.20;93.50;;;;;;6221259;23;20381;-78
2022/01/20 03:24:15;;;;;;;25.63;11.00;;;-1.20;93.40;;;;;;6221258;23;20031;-78
2022/01/20 03:26:40;;;;;;;19.65;9.63;;;-1.20;93.10;;;;;;6248236;23;20079;-78
2022/01/20 03:29:07;;;;;;;15.48;8.25;;;-1.20;92.90;;;;;;6247924;23;20105;-78
2022/01/20 03:31:33;;;;;;;16.02;8.90;;;-1.20;92.80;;;;;;6221119;23;20008;-78
2022/01/20 03:34:02;;;;;;;16.45;9.38;;;-1.20;93.00;;;;;;6247588;23;20067;-78
2022/01/20 03:36:28;;;;;;;19.25;10.02;;;-1.30;93.10;;;;;;6221137;23;20300;-79
2022/01/20 03:38:56;;;;;;;19.02;9.68;;;-1.30;93.30;;;;;;6221078;23;20010;-78
2022/01/20 03:41:24;;;;;;;19.63;9.43;;;-1.30;93.40;;;;;;6247675;23;20050;-77
2022/01/20 03:43:50;;;;;;;18.92;9.02;;;-1.30;93.10;;;;;;6222508;23;20069;-77
2022/01/20 03:46:17;;;;;;;18.63;8.95;;;-1.30;93.30;;;;;;6221605;23;20079;-77
2022/01/20 03:48:55;;;;;;;19.02;10.10;;;-1.30;93.20;;;;;;6222171;23;20061;-78
2022/01/20 03:51:23;;;;;;;20.25;9.98;;;-1.30;93.20;;;;;;6221312;23;20008;-78
2022/01/20 03:53:51;;;;;;;20.15;10.63;;;-1.30;93.20;;;;;;6248069;23;19992;-78
2022/01/20 03:56:18;;;;;;;20.83;10.90;;;-1.30;93.40;;;;;;6247348;23;20000;-78
2022/01/20 03:58:44;;;;;;;21.60;10.00;;;-1.40;93.50;;;;;;6220703;23;20392;-78
2022/01/20 04:01:10;;;;;;;20.02;10.45;;;-1.40;93.90;;;;;;6247705;23;20020;-78
2022/01/20 04:03:36;;;;;;;20.90;9.93;;;-1.40;94.00;;;;;;6247749;23;20001;-78
2022/01/20 04:06:02;;;;;;;21.38;10.70;;;-1.40;93.90;;;;;;6247129;23;20006;-78
2022/01/20 04:08:40;;;;;;;17.27;9.80;;;-1.30;94.30;;;;;;6247185;22;20418;-78
2022/01/20 04:11:12;;;;;;;23.17;11.38;;;-1.40;94.10;;;;;;6220373;23;20084;-78
2022/01/20 04:13:39;;;;;;;24.42;11.55;;;-1.30;94.00;;;;;;6221047;23;20004;-78
2022/01/20 04:16:13;;;;;;;24.40;11.70;;;-1.40;93.70;;;;;;6220166;23;20415;-79
2022/01/20 04:18:52;;;;;;;23.35;11.18;;;-1.40;93.70;;;;;;6247821;23;20012;-79
2022/01/20 04:21:24;;;;;;;20.30;10.73;;;-1.40;93.60;;;;;;6246914;23;20000;-78
2022/01/20 04:23:49;;;;;;;23.38;11.43;;;-1.40;93.40;;;;;;6221439;23;20011;-78
2022/01/20 04:26:15;;;;;;;20.17;10.43;;;-1.40;93.50;;;;;;6247235;23;19996;-78
2022/01/20 04:28:41;;;;;;;19.95;9.60;;;-1.40;93.50;;;;;;6246701;23;20000;-78
2022/01/20 04:31:07;;;;;;;18.10;9.25;;;-1.50;93.00;;;;;;6220850;23;20001;-78
2022/01/20 04:33:33;;;;;;;18.92;9.77;;;-1.50;93.20;;;;;;6246622;23;20000;-79
2022/01/20 04:35:59;;;;;;;19.27;9.90;;;-1.50;93.20;;;;;;6247291;23;20450;-79
2022/01/20 04:38:25;;;;;;;22.23;9.90;;;-1.50;93.40;;;;;;6219948;23;20011;-80
2022/01/20 04:40:51;;;;;;;19.67;9.63;;;-1.60;93.20;;;;;;6247816;23;20004;-78
2022/01/20 04:43:17;;;;;;;20.60;9.65;;;-1.50;93.10;;;;;;6246997;23;20000;-78
2022/01/20 04:45:50;;;;;;;18.65;9.15;;;-1.50;93.00;;;;;;6220658;23;19996;-78
2022/01/20 04:58:54;;;;;;;19.98;10.43;;;-1.60;92.90;;;;;;6246956;23;20086;-78
2022/01/20 05:01:20;;;;;;;20.52;10.32;;;-1.70;93.50;;;;;;6220688;23;20087;-78
2022/01/20 05:03:46;;;;;;;21.58;10.35;;;-1.70;93.60;;;;;;6219997;23;20000;-78
2022/01/20 05:06:11;;;;;;;21.40;11.48;;;-1.70;93.90;;;;;;6246608;23;20043;-78
2022/01/20 05:08:37;;;;;;;26.02;11.52;;;-1.70;94.20;;;;;;6247625;23;20354;-78
2022/01/20 05:11:04;;;;;;;28.67;14.05;;;-1.70;94.20;;;;;;6246384;23;20005;-78
2022/01/20 05:13:37;;;;;;;21.65;11.63;;;-1.70;94.60;;;;;;6246643;23;19996;-78
2022/01/20 05:16:03;;;;;;;26.50;12.65;;;-1.70;94.80;;;;;;6220558;23;20422;-78
2022/01/20 05:18:30;;;;;;;26.38;11.98;;;-1.70;94.60;;;;;;6219756;23;20367;-78
2022/01/20 05:20:56;;;;;;;21.92;11.60;;;-1.70;94.60;;;;;;6219653;23;20011;-78
2022/01/20 05:23:22;;;;;;;22.88;12.05;;;-1.80;94.70;;;;;;6246474;23;20051;-80
2022/01/20 05:25:48;;;;;;;22.63;11.88;;;-1.80;94.90;;;;;;6246161;23;20000;-79
2022/01/20 05:28:13;;;;;;;24.55;12.55;;;-1.80;95.10;;;;;;6246185;23;19996;-79
2022/01/20 05:30:40;;;;;;;28.42;14.05;;;-1.80;95.10;;;;;;6219554;23;20006;-80
2022/01/20 05:33:06;;;;;;;28.75;13.43;;;-1.80;95.20;;;;;;6246170;23;20043;-80
2022/01/20 05:35:32;;;;;;;28.65;13.63;;;-1.80;95.30;;;;;;6219683;23;20050;-79
2022/01/20 05:37:58;;;;;;;25.25;12.63;;;-1.80;95.60;;;;;;6219339;23;20000;-78
2022/01/20 05:40:24;;;;;;;26.63;13.73;;;-1.80;96.00;;;;;;6246238;23;20004;-78
2022/01/20 05:42:50;;;;;;;30.23;14.48;;;-1.90;96.20;;;;;;6219553;23;20035;-79
2022/01/20 05:45:16;;;;;;;32.80;16.42;;;-1.80;96.10;;;;;;6219284;23;20139;-78
2022/01/20 05:47:46;;;;;;;34.05;17.08;;;-1.80;96.30;;;;;;6246697;23;20024;-79
2022/01/20 05:50:18;;;;;;;37.42;18.15;;;-1.80;96.40;;;;;;6219658;23;20486;-79
2022/01/20 05:52:46;;;;;;;37.28;17.10;;;-1.80;96.60;;;;;;6219026;23;20291;-80
2022/01/20 05:55:17;;;;;;;37.05;18.33;;;-1.80;96.60;;;;;;6246080;23;20076;-79
2022/01/20 05:57:43;;;;;;;38.17;18.25;;;-1.80;96.30;;;;;;6245607;23;20070;-80
2022/01/20 06:00:12;;;;;;;35.75;19.40;;;-1.70;96.30;;;;;;6245623;23;20055;-79
2022/01/20 06:03:36;;;;;;;34.63;16.25;;;-1.80;96.60;;;;;;6219062;23;19996;-79
2022/01/20 06:05:25;;;;;;;36.50;16.50;;;-1.80;96.30;;;;;;6246077;23;20115;-77
2022/01/20 06:07:56;;;;;;;38.72;18.15;;;-1.70;96.20;;;;;;6215616;23;20004;-82
2022/01/20 06:10:22;;;;;;;36.00;17.02;;;-1.70;96.40;;;;;;6215348;23;20059;-79
2022/01/20 06:12:48;;;;;;;34.13;15.55;;;-1.70;96.50;;;;;;6215382;23;20055;-79
2022/01/20 06:15:13;;;;;;;29.45;14.75;;;-1.70;96.20;;;;;;6214698;23;20038;-89
2022/01/20 06:17:41;;;;;;;30.33;15.02;;;-1.60;95.90;;;;;;6242094;23;20031;-80
2022/01/20 06:20:08;;;;;;;31.38;15.05;;;-1.70;95.80;;;;;;6213660;23;20451;-79
2022/01/20 06:22:34;;;;;;;32.15;16.05;;;-1.60;95.80;;;;;;6241341;23;19992;-83
2022/01/20 06:25:00;;;;;;;29.63;14.80;;;-1.60;95.60;;;;;;6215248;23;20123;-78
2022/01/20 06:27:25;;;;;;;29.48;14.32;;;-1.60;95.90;;;;;;6241236;23;20032;-83
2022/01/20 06:29:51;;;;;;;43.38;21.20;;;-1.60;95.80;;;;;;6215181;23;20013;-84
2022/01/20 06:32:19;;;;;;;42.75;21.40;;;-1.60;96.10;;;;;;6215061;23;20005;-79
2022/01/20 06:34:46;;;;;;;39.20;19.10;;;-1.60;96.10;;;;;;6242185;23;19996;-78
2022/01/20 06:37:32;;;;;;;42.53;18.60;;;-1.60;96.10;;;;;;6242318;23;19996;-82
2022/01/20 06:39:58;;;;;;;32.22;16.08;;;-1.60;96.20;;;;;;6214221;23;20008;-78
2022/01/20 06:42:23;;;;;;;44.15;18.98;;;-1.50;96.40;;;;;;6213718;23;20080;-86
2022/01/20 06:44:49;;;;;;;45.65;22.65;;;-1.50;96.40;;;;;;6242283;23;19996;-79
2022/01/20 06:47:15;;;;;;;44.22;21.23;;;-1.50;96.00;;;;;;6240802;23;20001;-82
2022/01/20 06:49:40;;;;;;;40.58;20.10;;;-1.50;96.20;;;;;;6240615;23;20382;-80
2022/01/20 06:52:06;;;;;;;38.72;17.90;;;-1.40;96.00;;;;;;6212956;23;20001;-80
2022/01/20 06:54:34;;;;;;;36.70;17.20;;;-1.40;96.20;;;;;;6240883;23;20000;-80
2022/01/20 06:57:00;;;;;;;34.03;15.75;;;-1.40;96.10;;;;;;6242299;23;20066;-85
2022/01/20 06:59:29;;;;;;;45.42;22.90;;;-1.40;96.50;;;;;;6216458;23;20000;-81
2022/01/20 07:01:58;;;;;;;47.97;23.05;;;-1.40;96.50;;;;;;6215779;23;20392;-79
2022/01/20 07:04:26;;;;;;;43.45;21.05;;;-1.30;96.40;;;;;;6215889;23;20087;-79
2022/01/20 07:06:52;;;;;;;36.50;17.65;;;-1.20;96.00;;;;;;6242551;23;20338;-94
2022/01/20 07:09:18;;;;;;;37.50;18.00;;;-1.10;95.50;;;;;;6242397;23;20008;-79
2022/01/20 07:11:44;;;;;;;39.97;18.63;;;-1.10;95.40;;;;;;6215081;23;20426;-81
2022/01/20 07:14:11;;;;;;;137.40;63.40;;;-1.00;94.80;;;;;;6217108;23;20000;-83
2022/01/20 07:16:36;;;;;;;81.95;36.03;;;-1.00;95.30;;;;;;6244407;23;20019;-94
2022/01/20 07:19:03;;;;;;;77.50;34.80;;;-1.00;94.90;;;;;;6213818;23;20008;-91
2022/01/20 07:21:32;;;;;;;64.90;29.65;;;-0.90;94.50;;;;;;6213363;23;20090;-89
2022/01/20 07:23:58;;;;;;;56.85;25.65;;;-0.80;97.50;;;;;;6215097;23;20043;-89
2022/01/20 07:26:24;;;;;;;47.47;22.10;;;-0.50;98.80;;;;;;6238503;23;19996;-90
2022/01/20 07:28:49;;;;;;;43.85;20.92;;;-0.10;99.20;;;;;;6215626;23;20099;-89
2022/01/20 07:31:20;;;;;;;43.67;21.40;;;0.40;97.50;;;;;;6215091;23;20611;-89
2022/01/20 07:33:49;;;;;;;36.65;18.80;;;0.80;94.40;;;;;;6215517;23;20109;-92
2022/01/20 07:36:15;;;;;;;37.17;19.42;;;1.10;93.60;;;;;;6218151;23;20003;-92
2022/01/20 07:38:41;;;;;;;33.70;17.67;;;1.50;92.80;;;;;;6214882;23;20004;-89
2022/01/20 07:41:07;;;;;;;30.02;15.27;;;1.80;89.50;;;;;;6215348;23;20008;-92
2022/01/20 07:43:32;;;;;;;28.25;15.45;;;2.00;85.90;;;;;;6240655;23;20046;-89
2022/01/20 07:45:58;;;;;;;37.05;20.20;;;2.20;84.70;;;;;;6241939;23;20000;-89
2022/01/20 07:48:24;;;;;;;41.53;22.15;;;2.40;83.40;;;;;;6217545;23;20036;-87
2022/01/20 07:50:50;;;;;;;40.03;20.38;;;2.60;81.00;;;;;;6213410;23;20023;-89
2022/01/20 07:53:15;;;;;;;40.92;20.05;;;2.80;78.50;;;;;;6213544;23;20023;-87
2022/01/20 07:55:41;;;;;;;37.25;18.40;;;2.80;78.30;;;;;;6214305;23;20022;-89
2022/01/20 07:58:07;;;;;;;35.80;17.75;;;3.00;77.80;;;;;;6214284;23;20012;-89
2022/01/20 08:00:33;;;;;;;27.17;15.20;;;3.10;76.70;;;;;;6219697;23;20010;-89
2022/01/20 08:02:58;;;;;;;26.10;13.13;;;3.20;73.50;;;;;;6215544;23;20079;-91
2022/01/20 08:05:24;;;;;;;23.90;13.13;;;3.30;74.00;;;;;;6241197;23;20407;-88
2022/01/20 08:07:50;;;;;;;29.40;15.52;;;3.40;74.10;;;;;;6241539;23;19999;-92
2022/01/20 08:10:19;;;;;;;29.05;16.65;;;3.50;72.70;;;;;;6240369;23;20012;-91
2022/01/20 08:12:44;;;;;;;35.25;19.63;;;3.70;70.20;;;;;;6213074;23;20004;-89
2022/01/20 08:15:12;;;;;;;43.92;23.75;;;3.60;70.60;;;;;;6242040;23;20001;-90
2022/01/20 08:17:39;;;;;;;35.22;19.48;;;3.50;69.10;;;;;;6240883;23;20051;-89
2022/01/20 08:20:06;;;;;;;30.27;17.13;;;3.40;70.10;;;;;;6213747;23;20301;-90
2022/01/20 08:22:34;;;;;;;32.72;17.48;;;3.30;70.40;;;;;;6214877;23;20000;-90
2022/01/20 08:25:01;;;;;;;34.28;18.35;;;3.30;71.50;;;;;;6214479;23;20366;-90
2022/01/20 08:27:27;;;;;;;28.55;15.98;;;3.50;70.50;;;;;;6214567;23;20359;-90
2022/01/20 08:29:53;;;;;;;30.38;15.98;;;3.60;70.90;;;;;;6214719;23;20091;-88
2022/01/20 08:32:19;;;;;;;32.95;18.27;;;3.80;71.20;;;;;;6214430;23;20008;-89
2022/01/20 08:34:45;;;;;;;34.10;18.27;;;4.10;68.70;;;;;;6213942;23;20004;-89
2022/01/20 08:37:10;;;;;;;35.25;18.08;;;4.20;68.40;;;;;;6214939;23;20012;-90
2022/01/20 08:42:05;;;;;;;30.75;16.35;;;4.50;68.20;;;;;;6240171;23;20004;-88
2022/01/20 08:44:31;;;;;;;30.00;16.88;;;4.70;66.80;;;;;;6241205;23;20026;-86
2022/01/20 08:46:58;;;;;;;32.90;19.65;;;4.90;66.60;;;;;;6240976;23;20359;-88
2022/01/20 08:49:24;;;;;;;32.35;18.25;;;5.00;66.40;;;;;;6212886;23;20012;-90
2022/01/20 08:51:50;;;;;;;32.40;17.60;;;5.10;66.50;;;;;;6213403;23;20011;-89
2022/01/20 08:54:16;;;;;;;28.35;16.23;;;5.30;65.50;;;;;;6212867;23;20008;-89
2022/01/20 08:56:43;;;;;;;25.50;14.80;;;5.30;65.60;;;;;;6238317;23;20075;-88
2022/01/20 08:59:10;;;;;;;27.33;15.30;;;5.40;64.30;;;;;;6213407;23;20004;-91
2022/01/20 09:01:39;;;;;;;24.88;14.43;;;5.50;63.10;;;;;;6214403;23;19996;-89
2022/01/20 09:04:08;;;;;;;22.25;13.52;;;5.40;63.00;;;;;;6213477;23;20000;-90
2022/01/20 09:06:34;;;;;;;22.92;14.20;;;5.40;63.80;;;;;;6213118;23;20000;-90
2022/01/20 09:09:03;;;;;;;32.85;18.40;;;5.50;63.20;;;;;;6214892;23;20308;-91
2022/01/20 09:11:37;;;;;;;33.42;19.42;;;5.60;61.70;;;;;;6214061;23;20075;-91
2022/01/20 09:16:48;;;;;;;34.33;20.02;;;5.30;61.40;;;;;;6247586;23;20091;-93
2022/01/20 09:19:15;;;;;;;32.42;17.73;;;5.10;61.70;;;;;;6216474;23;19996;-94
2022/01/20 09:21:40;;;;;;;28.52;17.98;;;5.10;61.70;;;;;;6216274;23;20008;-88
2022/01/20 09:24:07;;;;;;;23.92;15.45;;;4.80;61.80;;;;;;6244770;23;20411;-91
2022/01/20 09:26:33;;;;;;;23.45;14.02;;;4.40;62.20;;;;;;6217928;23;20000;-93
2022/01/20 09:29:00;;;;;;;24.25;13.70;;;3.80;63.20;;;;;;6217337;23;20092;-89
2022/01/20 09:31:27;;;;;;;23.58;14.13;;;3.40;64.50;;;;;;6227379;23;20012;-93
2022/01/20 09:33:54;;;;;;;29.50;15.60;;;3.00;66.20;;;;;;6264347;23;19984;-94
2022/01/20 09:36:22;;;;;;;34.97;18.83;;;2.70;66.90;;;;;;6262644;23;19976;-89
2022/01/20 09:38:48;;;;;;;41.38;20.27;;;2.40;67.60;;;;;;6234987;23;20004;-92
2022/01/20 09:41:14;;;;;;;38.47;20.13;;;2.10;68.60;;;;;;6265894;22;19992;-88
2022/01/20 09:43:41;;;;;;;31.90;18.67;;;1.90;69.70;;;;;;6262402;23;20000;-92
2022/01/20 09:46:07;;;;;;;33.42;18.10;;;1.70;70.90;;;;;;6255586;23;20052;-89
2022/01/20 09:48:33;;;;;;;29.20;16.13;;;1.50;71.80;;;;;;6227911;23;20004;-91
2022/01/20 09:51:00;;;;;;;26.75;14.70;;;1.40;72.40;;;;;;6251499;23;20000;-92
2022/01/20 09:53:30;;;;;;;28.67;14.82;;;1.30;72.60;;;;;;6222524;23;20092;-90
2022/01/20 09:55:57;;;;;;;26.33;13.95;;;1.20;73.40;;;;;;6220810;23;20004;-96
2022/01/20 09:58:23;;;;;;;31.08;16.42;;;1.00;74.30;;;;;;6220671;23;20031;-93
2022/01/20 10:00:51;;;;;;;38.22;18.15;;;0.90;75.20;;;;;;6219005;23;20024;-90
2022/01/20 10:03:20;;;;;;;34.40;17.50;;;0.90;75.90;;;;;;6223009;23;20001;-93
2022/01/20 10:05:49;;;;;;;33.22;16.73;;;0.80;76.10;;;;;;6222976;23;19996;-96
2022/01/20 10:08:23;;;;;;;35.78;17.27;;;0.70;76.70;;;;;;6224935;23;20000;-96
2022/01/20 10:10:57;;;;;;;35.55;18.27;;;0.70;77.50;;;;;;6223677;23;20007;-95
2022/01/20 10:13:25;;;;;;;33.92;17.98;;;0.50;77.70;;;;;;6246452;23;20000;-90
2022/01/20 10:16:02;;;;;;;34.47;17.35;;;0.50;78.40;;;;;;6249188;23;19993;-94
2022/01/20 10:18:29;;;;;;;36.35;19.15;;;0.40;80.00;;;;;;6220905;23;20327;-93
2022/01/20 10:21:00;;;;;;;36.50;18.80;;;0.40;79.70;;;;;;6220035;23;20415;-93
2022/01/20 10:23:31;;;;;;;30.00;15.77;;;0.40;79.90;;;;;;6219907;23;20000;-93
2022/01/20 10:26:07;;;;;;;;;;;0.30;80.00;;;;;;6251312;23;20000;-93
2022/01/20 10:28:53;;;;;;;28.70;15.60;;;0.30;81.10;;;;;;6223782;23;19904;-93
2022/01/20 10:31:33;;;;;;;34.03;15.57;;;0.50;80.50;;;;;;6248669;23;20004;-93
2022/01/20 10:33:59;;;;;;;29.92;14.73;;;0.60;79.50;;;;;;6249380;23;20023;-94
2022/01/20 10:36:25;;;;;;;28.13;14.45;;;0.70;78.90;;;;;;6233631;23;20001;-94
2022/01/20 10:38:57;;;;;;;29.13;14.82;;;0.70;78.30;;;;;;6225307;23;20012;-92
2022/01/20 10:41:37;;;;;;;26.05;14.20;;;0.70;78.00;;;;;;6223481;23;20023;-94
2022/01/20 10:44:06;;;;;;;28.77;14.80;;;0.80;78.00;;;;;;6221409;23;20087;-94
2022/01/20 10:46:53;;;;;;;31.25;16.20;;;0.70;78.40;;;;;;6223754;23;20020;-92
2022/01/20 10:49:32;;;;;;;33.15;17.40;;;0.80;79.00;;;;;;6244667;23;20030;-87
2022/01/20 10:52:06;;;;;;;32.05;16.70;;;1.00;78.70;;;;;;6246441;23;20075;-88
2022/01/20 10:54:49;;;;;;;31.38;14.88;;;1.10;78.30;;;;;;6222701;23;20031;-89
2022/01/20 10:57:16;;;;;;;27.45;15.27;;;1.20;77.40;;;;;;6193899;23;20020;-91
2022/01/20 10:59:55;;;;;;;25.30;14.00;;;1.30;77.90;;;;;;6227241;23;20004;-92
2022/01/20 11:02:28;;;;;;;28.63;14.23;;;1.60;76.10;;;;;;6223917;23;20067;-92
2022/01/20 11:04:58;;;;;;;24.13;12.93;;;1.70;73.60;;;;;;6221161;23;20001;-92
2022/01/20 11:07:25;;;;;;;24.10;12.50;;;2.00;75.70;;;;;;6245175;23;20008;-95
2022/01/20 11:10:03;;;;;;;21.13;12.45;;;2.80;74.60;;;;;;6245596;23;20071;-93
2022/01/20 11:12:30;;;;;;;27.50;13.70;;;3.60;69.80;;;;;;6219229;23;20075;-95
2022/01/20 11:14:57;;;;;;;21.48;12.77;;;4.00;69.10;;;;;;6219308;23;20069;-92
2022/01/20 11:17:29;;;;;;;22.77;13.73;;;4.60;69.30;;;;;;6219636;23;20142;-93
2022/01/20 11:20:07;;;;;;;23.60;12.95;;;5.20;66.50;;;;;;6220588;23;20011;-95
2022/01/20 11:22:33;;;;;;;21.70;13.38;;;5.80;63.60;;;;;;6222351;23;20000;-92
2022/01/20 11:25:04;;;;;;;21.48;12.85;;;6.20;61.70;;;;;;6244375;23;20026;-95
2022/01/20 11:27:35;;;;;;;;;;;6.70;59.70;;;;;;6219647;23;20026;-88
2022/01/20 11:30:32;;;;;;;18.83;11.35;;;7.00;57.80;;;;;;6219010;23;19991;-90
2022/01/20 11:32:58;;;;;;;19.13;10.93;;;7.30;56.70;;;;;;6215819;23;20288;-93
2022/01/20 11:35:40;;;;;;;21.75;12.48;;;7.70;56.60;;;;;;6243298;23;20074;-93
2022/01/20 11:38:07;;;;;;;17.42;11.00;;;8.00;53.90;;;;;;6216288;23;20012;-94
2022/01/20 11:40:35;;;;;;;19.25;11.48;;;7.80;54.80;;;;;;6218924;23;20007;-88
2022/01/20 11:43:07;;;;;;;19.40;11.90;;;8.20;53.40;;;;;;6199930;23;20019;-93
2022/01/20 11:45:36;;;;;;;19.35;11.45;;;8.30;53.30;;;;;;6221170;23;20008;-93
2022/01/20 11:48:23;;;;;;;18.25;11.07;;;8.40;53.50;;;;;;6229106;23;20457;-94
2022/01/20 11:51:06;;;;;;;21.83;11.48;;;8.40;52.60;;;;;;6266604;23;20003;-91
2022/01/20 11:53:41;;;;;;;18.75;11.38;;;8.10;52.10;;;;;;6232746;23;20059;-89
2022/01/20 11:56:09;;;;;;;19.67;11.98;;;7.90;53.70;;;;;;6219395;23;20374;-89
2022/01/20 11:58:35;;;;;;;19.73;10.65;;;8.10;53.80;;;;;;6245340;23;20075;-93
2022/01/20 12:01:04;;;;;;;18.92;10.40;;;8.40;52.70;;;;;;6217473;23;20157;-90
2022/01/20 12:03:35;;;;;;;16.83;9.93;;;8.50;52.80;;;;;;6218714;23;20000;-90
2022/01/20 12:06:13;;;;;;;16.33;9.70;;;8.90;51.90;;;;;;6221429;23;20004;-92
2022/01/20 12:08:54;;;;;;;15.75;9.80;;;9.10;50.30;;;;;;6225328;23;20043;-91
2022/01/20 12:11:47;;;;;;;16.02;9.68;;;9.20;49.70;;;;;;6221446;23;20004;-90
2022/01/20 12:14:27;;;;;;;16.13;9.50;;;9.20;50.20;;;;;;6207217;23;20238;-94
2022/01/20 12:17:01;;;;;;;16.15;9.25;;;9.50;49.20;;;;;;6221015;23;20027;-92
2022/01/20 12:19:27;;;;;;;15.00;8.95;;;9.50;48.20;;;;;;6216586;23;20321;-94
2022/01/20 12:21:53;;;;;;;14.90;9.30;;;9.50;48.10;;;;;;6245054;23;20004;-94
2022/01/20 12:24:20;;;;;;;13.85;8.57;;;9.30;48.20;;;;;;6217828;23;20000;-89
2022/01/20 12:26:46;;;;;;;17.58;9.10;;;9.20;49.40;;;;;;6244943;23;20006;-93
2022/01/20 12:29:12;;;;;;;15.52;8.77;;;9.40;48.70;;;;;;6216190;23;20402;-92
2022/01/20 12:31:54;;;;;;;16.58;9.45;;;9.40;47.80;;;;;;6216745;23;20091;-89
2022/01/20 12:34:21;;;;;;;14.48;8.90;;;9.30;46.80;;;;;;6217197;23;20327;-87
2022/01/20 12:36:56;;;;;;;14.45;8.73;;;9.00;48.30;;;;;;6215256;23;20007;-88
2022/01/20 12:39:33;;;;;;;13.20;8.60;;;9.10;47.70;;;;;;6215540;23;20020;-88
2022/01/20 12:42:02;;;;;;;14.57;8.45;;;9.00;48.00;;;;;;6215478;23;20007;-88
2022/01/20 12:45:00;;;;;;;12.32;7.57;;;8.70;48.40;;;;;;6214207;23;20030;-87
2022/01/20 12:47:28;;;;;;;13.73;8.40;;;8.70;48.80;;;;;;6214075;23;20004;-90
2022/01/20 12:49:55;;;;;;;15.20;8.30;;;8.80;49.30;;;;;;6241261;23;20008;-88
2022/01/20 12:52:21;;;;;;;12.40;7.80;;;8.90;49.40;;;;;;6215296;23;20004;-85
2022/01/20 12:55:05;;;;;;;12.77;7.20;;;9.10;49.40;;;;;;6214565;23;20323;-86
2022/01/20 12:57:30;;;;;;;12.68;7.90;;;9.20;49.10;;;;;;6214749;23;20086;-84
2022/01/20 12:59:57;;;;;;;14.77;7.78;;;9.30;49.60;;;;;;6213375;23;20004;-87
2022/01/20 13:02:23;;;;;;;13.85;8.77;;;9.40;49.30;;;;;;6216095;23;20000;-87
2022/01/20 13:05:00;;;;;;;13.48;8.35;;;9.60;48.20;;;;;;6216719;23;20000;-87
2022/01/20 13:07:27;;;;;;;14.32;8.40;;;9.40;47.70;;;;;;6216783;23;20008;-89
2022/01/20 13:10:04;;;;;;;13.00;7.97;;;9.30;48.70;;;;;;6216820;23;20061;-90
2022/01/20 13:12:39;;;;;;;14.65;8.55;;;9.30;48.30;;;;;;6216156;23;20059;-88
2022/01/20 13:15:16;;;;;;;16.90;10.35;;;9.20;48.50;;;;;;6242250;23;19992;-91
2022/01/20 13:17:44;;;;;;;18.35;10.25;;;9.00;49.20;;;;;;6215155;23;20075;-82
2022/01/20 13:20:31;;;;;;;16.83;9.60;;;9.00;49.30;;;;;;6247120;23;20031;-91
2022/01/20 13:23:54;;;;;;;14.48;8.48;;;8.90;48.60;;;;;;6218681;23;20422;-89
2022/01/20 13:26:13;;;;;;;14.77;8.68;;;8.80;49.70;;;;;;6244812;23;19996;-89
2022/01/20 13:28:39;;;;;;;17.27;10.23;;;8.80;49.90;;;;;;6219483;23;20059;-89
2022/01/20 13:31:16;;;;;;;18.05;10.30;;;8.70;50.00;;;;;;6219727;23;20008;-88
2022/01/20 13:33:45;;;;;;;15.77;10.10;;;8.70;49.50;;;;;;6222839;23;20000;-90
2022/01/20 13:36:11;;;;;;;16.70;10.50;;;8.40;49.60;;;;;;6245351;23;20044;-88
2022/01/20 13:38:45;;;;;;;16.25;10.20;;;8.10;50.30;;;;;;6247415;23;20004;-91
2022/01/20 13:41:14;;;;;;;14.60;9.30;;;7.90;51.00;;;;;;6217457;23;20008;-88
2022/01/20 13:46:45;;;;;;;14.70;9.63;;;7.70;51.00;;;;;;6247223;23;20554;-89
2022/01/20 13:49:13;;;;;;;16.13;9.95;;;7.50;51.50;;;;;;6220666;23;20008;-90
2022/01/20 13:51:40;;;;;;;16.45;9.75;;;7.30;51.70;;;;;;6222991;23;20020;-88
2022/01/20 13:54:06;;;;;;;17.40;11.10;;;7.00;52.10;;;;;;6222631;23;20002;-89